createdAt,value
2023-02-26T00:01:40.221Z,3.20
2023-02-26T00:04:10.769Z,3.20
2023-02-26T00:06:54.202Z,3.20
2023-02-26T00:09:32.923Z,3.10
2023-02-26T00:12:03.044Z,3.10
2023-02-26T00:14:32.996Z,3.00
2023-02-26T00:17:30.504Z,3.10
2023-02-26T00:19:59.023Z,3.00
2023-02-26T00:22:27.144Z,3.00
2023-02-26T00:24:54.211Z,2.90
2023-02-26T00:27:21.695Z,2.90
2023-02-26T00:29:51.178Z,3.00
2023-02-26T00:32:21.791Z,3.00
2023-02-26T00:34:51.145Z,3.10
2023-02-26T00:37:34.094Z,3.10
2023-02-26T00:40:15.374Z,3.20
2023-02-26T00:42:43.958Z,3.10
2023-02-26T00:45:13.214Z,3.10
2023-02-26T00:47:51.034Z,3.10
2023-02-26T00:50:23.263Z,3.10
2023-02-26T00:53:04.957Z,3.30
2023-02-26T00:55:32.138Z,3.30
2023-02-26T00:58:02.480Z,3.40
2023-02-26T01:00:30.089Z,3.50
2023-02-26T01:02:59.959Z,3.50
2023-02-26T01:05:28.205Z,3.50
2023-02-26T01:08:04.242Z,3.50
2023-02-26T01:10:32.435Z,3.50
2023-02-26T01:13:01.334Z,3.50
2023-02-26T01:15:29.358Z,3.50
2023-02-26T01:18:06.622Z,3.40
2023-02-26T01:20:43.080Z,3.30
2023-02-26T01:23:16.466Z,3.40
2023-02-26T01:25:50.372Z,3.40
2023-02-26T01:28:19.104Z,3.40
2023-02-26T01:30:47.488Z,3.40
2023-02-26T01:33:26.237Z,3.40
2023-02-26T01:35:56.117Z,3.30
2023-02-26T01:38:32.923Z,3.40
2023-02-26T01:41:29.761Z,3.40
2023-02-26T01:44:09.287Z,3.40
2023-02-26T01:46:52.051Z,3.30
2023-02-26T01:49:21.659Z,3.20
2023-02-26T01:51:51.913Z,3.20
2023-02-26T01:54:22.000Z,3.30
2023-02-26T01:56:52.767Z,3.20
2023-02-26T01:59:24.846Z,3.20
2023-02-26T02:01:55.112Z,3.20
2023-02-26T02:04:25.617Z,3.20
2023-02-26T02:06:56.003Z,3.20
2023-02-26T02:09:26.020Z,3.10
2023-02-26T02:12:21.691Z,3.10
2023-02-26T02:15:06.870Z,3.10
2023-02-26T02:17:48.889Z,3.10
2023-02-26T02:21:26.841Z,3.10
2023-02-26T02:23:58.520Z,3.00
2023-02-26T02:26:50.680Z,3.00
2023-02-26T02:30:02.505Z,3.00
2023-02-26T02:32:37.485Z,2.90
2023-02-26T02:35:13.875Z,2.90
2023-02-26T02:37:47.249Z,2.90
2023-02-26T02:40:19.189Z,2.90
2023-02-26T02:42:53.064Z,2.90
2023-02-26T02:45:26.920Z,2.80
2023-02-26T02:48:05.287Z,2.80
2023-02-26T02:50:39.522Z,2.80
2023-02-26T02:53:14.391Z,2.70
2023-02-26T02:55:49.077Z,2.60
2023-02-26T02:58:22.676Z,2.50
2023-02-26T03:00:54.990Z,2.50
2023-02-26T03:03:33.898Z,2.50
2023-02-26T03:06:01.839Z,2.50
2023-02-26T03:08:34.675Z,2.50
2023-02-26T03:11:02.256Z,2.50
2023-02-26T03:13:29.197Z,2.40
2023-02-26T03:16:14.383Z,2.40
2023-02-26T03:18:53.846Z,2.30
2023-02-26T03:21:31.269Z,2.30
2023-02-26T03:24:08.864Z,2.30
2023-02-26T03:26:43.727Z,2.20
2023-02-26T03:29:18.926Z,2.30
2023-02-26T03:31:53.803Z,2.30
2023-02-26T03:34:29.363Z,2.40
2023-02-26T03:37:01.150Z,2.40
2023-02-26T03:39:36.626Z,2.50
2023-02-26T03:42:08.480Z,2.50
2023-02-26T03:44:40.640Z,2.40
2023-02-26T03:47:12.682Z,2.40
2023-02-26T03:49:48.852Z,2.40
2023-02-26T03:52:20.769Z,2.30
2023-02-26T03:54:56.315Z,2.30
2023-02-26T03:57:24.731Z,2.30
2023-02-26T03:59:52.039Z,2.10
2023-02-26T04:02:23.585Z,2.20
2023-02-26T04:05:05.880Z,2.20
2023-02-26T04:07:33.531Z,2.20
2023-02-26T04:10:01.023Z,2.30
2023-02-26T04:12:29.181Z,2.30
2023-02-26T04:14:57.696Z,2.30
2023-02-26T04:17:25.223Z,2.20
2023-02-26T04:19:52.322Z,2.10
2023-02-26T04:22:20.701Z,2.10
2023-02-26T04:24:47.690Z,2.10
2023-02-26T04:27:14.684Z,2.10
2023-02-26T04:29:42.147Z,2.10
2023-02-26T04:32:09.341Z,2.10
2023-02-26T04:34:36.545Z,2.10
2023-02-26T04:37:03.725Z,2.10
2023-02-26T04:39:32.193Z,2.10
2023-02-26T04:42:03.048Z,2.00
2023-02-26T04:44:30.162Z,2.00
2023-02-26T04:46:57.773Z,2.00
2023-02-26T04:49:24.764Z,1.90
2023-02-26T04:51:52.542Z,2.00
2023-02-26T04:54:20.127Z,2.00
2023-02-26T04:56:48.589Z,2.00
2023-02-26T04:59:15.725Z,2.00
2023-02-26T05:01:46.355Z,2.00
2023-02-26T05:04:13.998Z,1.90
2023-02-26T05:06:41.902Z,1.90
2023-02-26T05:09:12.238Z,1.80
2023-02-26T05:11:39.789Z,1.90
2023-02-26T05:14:08.423Z,1.90
2023-02-26T05:16:35.534Z,1.90
2023-02-26T05:19:05.657Z,1.90
2023-02-26T05:21:33.274Z,1.90
2023-02-26T05:24:00.432Z,1.90
2023-02-26T05:26:28.017Z,1.90
2023-02-26T05:28:55.334Z,1.90
2023-02-26T05:31:23.961Z,1.90
2023-02-26T05:33:51.122Z,1.90
2023-02-26T05:36:18.349Z,1.90
2023-02-26T05:38:48.987Z,1.70
2023-02-26T05:41:16.238Z,1.80
2023-02-26T05:43:44.321Z,1.80
2023-02-26T05:46:11.666Z,1.80
2023-02-26T05:48:40.213Z,1.90
2023-02-26T05:51:07.661Z,2.00
2023-02-26T05:53:36.884Z,2.00
2023-02-26T05:56:05.948Z,1.80
2023-02-26T05:58:34.549Z,1.80
2023-02-26T06:01:02.431Z,1.80
2023-02-26T06:03:29.508Z,1.90
2023-02-26T06:05:58.468Z,1.90
2023-02-26T06:08:26.118Z,1.90
2023-02-26T06:10:53.351Z,1.80
2023-02-26T06:13:22.371Z,1.80
2023-02-26T06:15:53.700Z,1.80
2023-02-26T06:18:20.808Z,1.80
2023-02-26T06:20:48.497Z,1.70
2023-02-26T06:23:16.922Z,1.70
2023-02-26T06:25:45.220Z,1.80
2023-02-26T06:28:12.400Z,1.80
2023-02-26T06:30:39.633Z,1.90
2023-02-26T06:33:06.766Z,1.90
2023-02-26T06:35:33.809Z,2.00
2023-02-26T06:38:00.842Z,2.00
2023-02-26T06:40:29.389Z,2.00
2023-02-26T06:42:57.440Z,1.90
2023-02-26T06:45:25.248Z,1.90
2023-02-26T06:47:52.449Z,2.00
2023-02-26T06:50:21.705Z,1.90
2023-02-26T06:52:48.848Z,2.00
2023-02-26T06:55:16.158Z,2.00
2023-02-26T06:57:45.024Z,2.00
2023-02-26T07:00:13.419Z,2.00
2023-02-26T07:02:41.168Z,1.90
2023-02-26T07:05:09.932Z,1.90
2023-02-26T07:07:37.814Z,1.90
2023-02-26T07:10:05.848Z,1.90
2023-02-26T07:12:34.032Z,1.80
2023-02-26T07:15:03.036Z,1.80
2023-02-26T07:17:30.147Z,1.80
2023-02-26T07:19:57.885Z,1.90
2023-02-26T07:22:25.396Z,2.00
2023-02-26T07:24:52.451Z,1.90
2023-02-26T07:27:21.074Z,2.00
2023-02-26T07:29:48.523Z,2.00
2023-02-26T07:32:17.691Z,2.00
2023-02-26T07:34:45.653Z,2.00
2023-02-26T07:37:13.139Z,2.00
2023-02-26T07:39:41.105Z,2.00
2023-02-26T07:42:09.336Z,1.90
2023-02-26T07:44:36.565Z,2.00
2023-02-26T07:47:04.309Z,2.00
2023-02-26T07:49:34.610Z,2.10
2023-02-26T07:52:02.241Z,2.10
2023-02-26T07:54:29.957Z,2.20
2023-02-26T07:56:57.357Z,2.20
2023-02-26T07:59:25.689Z,2.10
2023-02-26T08:01:57.075Z,2.10
2023-02-26T08:04:25.497Z,2.20
2023-02-26T08:06:54.757Z,2.30
2023-02-26T08:09:22.273Z,2.40
2023-02-26T08:11:50.906Z,2.40
2023-02-26T08:14:19.145Z,2.30
2023-02-26T08:16:46.417Z,2.30
2023-02-26T08:19:13.908Z,2.30
2023-02-26T08:21:41.248Z,2.40
2023-02-26T08:24:11.406Z,2.50
2023-02-26T08:26:38.918Z,2.60
2023-02-26T08:29:07.432Z,2.50
2023-02-26T08:31:35.613Z,2.40
2023-02-26T08:36:48.928Z,2.50
2023-02-26T08:39:18.397Z,2.50
2023-02-26T08:41:45.733Z,2.50
2023-02-26T08:44:13.428Z,2.50
2023-02-26T08:46:40.691Z,2.60
2023-02-26T08:49:08.666Z,2.40
2023-02-26T08:51:35.770Z,2.40
2023-02-26T08:54:03.600Z,2.40
2023-02-26T08:56:32.225Z,2.30
2023-02-26T08:58:59.392Z,2.40
2023-02-26T09:01:26.918Z,2.30
2023-02-26T09:03:54.830Z,2.40
2023-02-26T09:06:22.187Z,2.50
2023-02-26T09:08:49.924Z,2.50
2023-02-26T09:11:17.326Z,2.60
2023-02-26T09:13:46.256Z,2.60
2023-02-26T09:16:15.407Z,2.60
2023-02-26T09:18:46.661Z,2.70
2023-02-26T09:21:14.227Z,2.80
2023-02-26T09:23:45.030Z,2.90
2023-02-26T09:26:12.725Z,2.90
2023-02-26T09:28:42.643Z,3.10
2023-02-26T09:31:12.371Z,3.10
2023-02-26T09:33:40.351Z,3.20
2023-02-26T09:36:08.330Z,3.20
2023-02-26T09:38:36.561Z,3.30
2023-02-26T09:41:08.615Z,3.30
2023-02-26T09:44:20.774Z,3.40
2023-02-26T09:47:04.797Z,3.40
2023-02-26T09:49:46.677Z,3.40
2023-02-26T09:52:29.771Z,3.40
2023-02-26T09:55:05.863Z,3.30
2023-02-26T09:57:43.293Z,3.40
2023-02-26T10:00:24.879Z,3.40
2023-02-26T10:03:03.861Z,3.50
2023-02-26T10:05:43.417Z,3.50
2023-02-26T10:08:17.020Z,3.50
2023-02-26T10:10:51.509Z,3.60
2023-02-26T10:13:40.524Z,3.70
2023-02-26T10:16:17.473Z,3.80
2023-02-26T10:18:53.087Z,4.00
2023-02-26T10:21:26.609Z,4.00
2023-02-26T10:23:58.354Z,4.10
2023-02-26T10:26:30.903Z,4.10
2023-02-26T10:29:05.970Z,4.10
2023-02-26T10:31:39.084Z,4.10
2023-02-26T10:34:22.035Z,3.80
2023-02-26T10:36:58.719Z,3.80
2023-02-26T10:39:33.055Z,3.80
2023-02-26T10:42:04.342Z,4.00
2023-02-26T10:44:38.939Z,4.20
2023-02-26T10:47:19.809Z,4.30
2023-02-26T10:49:57.458Z,4.40
2023-02-26T10:52:27.610Z,4.70
2023-02-26T10:55:08.873Z,4.90
2023-02-26T10:57:42.984Z,4.90
2023-02-26T11:00:19.661Z,4.90
2023-02-26T11:02:51.922Z,4.90
2023-02-26T11:05:24.170Z,4.90
2023-02-26T11:07:55.606Z,5.00
2023-02-26T11:10:37.181Z,4.90
2023-02-26T11:13:04.429Z,4.90
2023-02-26T11:15:32.303Z,4.90
2023-02-26T11:18:01.709Z,4.90
2023-02-26T11:20:41.495Z,4.90
2023-02-26T11:23:17.780Z,4.90
2023-02-26T11:25:46.370Z,5.00
2023-02-26T11:28:24.231Z,4.90
2023-02-26T11:30:54.430Z,4.70
2023-02-26T11:33:33.513Z,4.70
2023-02-26T11:36:09.342Z,4.70
2023-02-26T11:38:38.168Z,4.60
2023-02-26T11:41:06.826Z,4.60
2023-02-26T11:43:44.298Z,4.60
2023-02-26T11:46:14.296Z,4.70
2023-02-26T11:48:44.837Z,4.70
2023-02-26T11:51:16.694Z,4.70
2023-02-26T11:53:51.426Z,4.80
2023-02-26T11:56:27.589Z,4.80
2023-02-26T11:58:56.535Z,4.80
2023-02-26T12:01:29.718Z,4.90
2023-02-26T12:04:04.153Z,5.00
2023-02-26T12:06:32.865Z,5.10
2023-02-26T12:09:00.933Z,5.20
2023-02-26T12:12:03.974Z,5.20
2023-02-26T12:14:57.921Z,5.20
2023-02-26T12:18:06.626Z,5.10
2023-02-26T12:20:43.365Z,5.10
2023-02-26T12:23:37.918Z,5.10
2023-02-26T12:26:29.321Z,5.00
2023-02-26T12:29:42.491Z,4.80
2023-02-26T12:32:24.123Z,4.80
2023-02-26T12:35:22.545Z,4.90
2023-02-26T12:38:03.266Z,4.90
2023-02-26T12:40:58.085Z,5.00
2023-02-26T12:43:39.936Z,5.00
2023-02-26T12:46:42.661Z,5.00
2023-02-26T12:49:31.420Z,5.00
2023-02-26T12:52:21.010Z,5.00
2023-02-26T12:55:17.898Z,5.00
2023-02-26T12:58:11.912Z,4.90
2023-02-26T13:01:05.915Z,4.90
2023-02-26T13:04:10.982Z,5.00
2023-02-26T13:07:11.087Z,4.90
2023-02-26T13:09:58.293Z,5.00
2023-02-26T13:12:37.751Z,4.90
2023-02-26T13:15:36.662Z,5.10
2023-02-26T13:18:13.046Z,5.10
2023-02-26T13:20:54.233Z,5.00
2023-02-26T13:23:25.342Z,5.00
2023-02-26T13:25:59.968Z,5.00
2023-02-26T13:28:40.308Z,4.90
2023-02-26T13:31:15.530Z,4.90
2023-02-26T13:33:46.215Z,4.90
2023-02-26T13:36:16.009Z,4.80
2023-02-26T13:39:07.526Z,4.80
2023-02-26T13:41:45.054Z,4.80
2023-02-26T13:44:28.784Z,4.80
2023-02-26T13:47:18.053Z,4.90
2023-02-26T13:50:00.183Z,4.90
2023-02-26T13:52:36.560Z,4.90
2023-02-26T13:55:38.368Z,5.10
2023-02-26T13:58:29.034Z,5.10
2023-02-26T14:01:07.542Z,5.10
2023-02-26T14:03:37.941Z,5.00
2023-02-26T14:06:39.292Z,4.90
2023-02-26T14:09:48.920Z,4.90
2023-02-26T14:12:35.807Z,4.90
2023-02-26T14:15:42.631Z,4.90
2023-02-26T14:18:32.676Z,4.70
2023-02-26T14:21:50.657Z,4.70
2023-02-26T14:24:23.800Z,4.70
2023-02-26T14:27:07.451Z,4.70
2023-02-26T14:29:42.076Z,4.80
2023-02-26T14:32:27.151Z,4.80
2023-02-26T14:35:00.058Z,4.80
2023-02-26T14:37:29.285Z,5.00
2023-02-26T14:40:00.201Z,5.10
2023-02-26T14:42:36.189Z,5.20
2023-02-26T14:45:28.516Z,5.30
2023-02-26T14:47:56.909Z,5.30
2023-02-26T14:50:35.654Z,5.30
2023-02-26T14:53:43.650Z,5.30
2023-02-26T14:56:20.334Z,5.20
2023-02-26T14:59:11.652Z,5.00
2023-02-26T15:02:05.814Z,5.00
2023-02-26T15:04:56.921Z,4.90
2023-02-26T15:07:49.547Z,4.80
2023-02-26T15:10:40.111Z,4.90
2023-02-26T15:13:32.968Z,4.90
2023-02-26T15:16:12.638Z,4.80
2023-02-26T15:19:04.382Z,4.80
2023-02-26T15:21:44.012Z,4.60
2023-02-26T15:24:15.878Z,4.70
2023-02-26T15:26:48.400Z,4.60
2023-02-26T15:29:16.455Z,4.50
2023-02-26T15:31:52.329Z,4.50
2023-02-26T15:34:21.448Z,4.50
2023-02-26T15:36:54.425Z,4.60
2023-02-26T15:39:25.120Z,4.60
2023-02-26T15:41:56.213Z,4.70
2023-02-26T15:44:29.190Z,4.70
2023-02-26T15:47:04.099Z,4.80
2023-02-26T15:49:37.470Z,4.80
2023-02-26T15:52:10.478Z,4.70
2023-02-26T15:54:43.862Z,4.70
2023-02-26T15:57:14.993Z,4.60
2023-02-26T15:59:46.541Z,4.50
2023-02-26T16:02:16.893Z,4.50
2023-02-26T16:04:44.781Z,4.50
2023-02-26T16:07:13.109Z,4.50
2023-02-26T16:09:45.306Z,4.50
2023-02-26T16:12:23.365Z,4.50
2023-02-26T16:14:57.290Z,4.40
2023-02-26T16:17:29.245Z,4.30
2023-02-26T16:19:59.488Z,4.30
2023-02-26T16:22:34.133Z,4.20
2023-02-26T16:25:09.139Z,4.00
2023-02-26T16:27:38.030Z,4.00
2023-02-26T16:30:07.566Z,4.10
2023-02-26T16:32:36.497Z,4.10
2023-02-26T16:35:13.181Z,4.10
2023-02-26T16:37:50.016Z,4.00
2023-02-26T16:40:20.926Z,3.90
2023-02-26T16:43:01.055Z,4.00
2023-02-26T16:45:49.859Z,4.00
2023-02-26T16:48:23.227Z,4.00
2023-02-26T16:50:58.254Z,4.00
2023-02-26T16:53:34.262Z,3.90
2023-02-26T16:56:03.907Z,3.90
2023-02-26T16:58:35.249Z,3.90
2023-02-26T17:01:09.431Z,3.90
2023-02-26T17:03:38.968Z,4.00
2023-02-26T17:06:11.594Z,4.00
2023-02-26T17:08:50.287Z,3.90
2023-02-26T17:11:24.939Z,3.90
2023-02-26T17:14:11.165Z,3.90
2023-02-26T17:16:38.609Z,3.80
2023-02-26T17:19:06.920Z,3.80
2023-02-26T17:21:35.740Z,3.80
2023-02-26T17:24:02.916Z,3.90
2023-02-26T17:26:30.499Z,3.90
2023-02-26T17:28:59.229Z,3.90
2023-02-26T17:31:26.646Z,3.90
2023-02-26T17:33:54.591Z,3.80
2023-02-26T17:36:22.390Z,3.80
2023-02-26T17:38:50.456Z,3.80
2023-02-26T17:41:18.924Z,3.80
2023-02-26T17:43:45.960Z,3.80
2023-02-26T17:46:14.583Z,3.80
2023-02-26T17:48:42.424Z,3.70
2023-02-26T17:51:11.539Z,3.70
2023-02-26T17:53:41.672Z,3.70
2023-02-26T17:56:26.933Z,3.70
2023-02-26T17:58:56.548Z,3.70
2023-02-26T18:01:29.273Z,3.60
2023-02-26T18:03:59.817Z,3.60
2023-02-26T18:06:37.121Z,3.60
2023-02-26T18:09:06.116Z,3.60
2023-02-26T18:11:34.046Z,3.60
2023-02-26T18:14:01.724Z,3.60
2023-02-26T18:16:35.311Z,3.60
2023-02-26T18:19:02.852Z,3.50
2023-02-26T18:21:31.567Z,3.60
2023-02-26T18:24:01.560Z,3.50
2023-02-26T18:26:32.385Z,3.50
2023-02-26T18:28:59.720Z,3.50
2023-02-26T18:31:34.783Z,3.60
2023-02-26T18:34:04.771Z,3.60
2023-02-26T18:36:39.599Z,3.50
2023-02-26T18:39:12.740Z,3.60
2023-02-26T18:41:40.769Z,3.60
2023-02-26T18:44:07.943Z,3.60
2023-02-26T18:46:40.308Z,3.50
2023-02-26T18:49:16.998Z,3.50
2023-02-26T18:51:44.493Z,3.50
2023-02-26T18:54:11.801Z,3.40
2023-02-26T18:56:38.878Z,3.40
2023-02-26T18:59:14.561Z,3.40
2023-02-26T19:01:42.025Z,3.40
2023-02-26T19:04:10.991Z,3.40
2023-02-26T19:06:38.082Z,3.40
2023-02-26T19:09:06.102Z,3.40
2023-02-26T19:11:33.767Z,3.40
2023-02-26T19:14:01.383Z,3.40
2023-02-26T19:16:30.736Z,3.40
2023-02-26T19:19:00.338Z,3.40
2023-02-26T19:21:28.845Z,3.40
2023-02-26T19:23:56.461Z,3.40
2023-02-26T19:26:23.825Z,3.40
2023-02-26T19:28:50.916Z,3.40
2023-02-26T19:31:18.098Z,3.40
2023-02-26T19:33:45.203Z,3.40
2023-02-26T19:36:12.322Z,3.40
2023-02-26T19:38:40.788Z,3.40
2023-02-26T19:41:08.462Z,3.40
2023-02-26T19:43:35.946Z,3.40
2023-02-26T19:46:03.185Z,3.40
2023-02-26T19:48:31.594Z,3.40
2023-02-26T19:50:59.685Z,3.40
2023-02-26T19:53:27.009Z,3.30
2023-02-26T19:55:55.901Z,3.30
2023-02-26T19:58:25.679Z,3.20
2023-02-26T20:00:54.550Z,3.30
2023-02-26T20:03:21.704Z,3.20
2023-02-26T20:05:50.315Z,3.30
2023-02-26T20:08:19.763Z,3.20
2023-02-26T20:10:49.395Z,3.20
2023-02-26T20:13:18.958Z,3.20
2023-02-26T20:15:51.248Z,3.20
2023-02-26T20:18:20.874Z,3.20
2023-02-26T20:20:48.449Z,3.30
2023-02-26T20:23:15.836Z,3.30
2023-02-26T20:25:44.417Z,3.30
2023-02-26T20:28:13.738Z,3.30
2023-02-26T20:30:42.779Z,3.20
2023-02-26T20:33:22.111Z,3.20
2023-02-26T20:35:50.135Z,3.10
2023-02-26T20:38:19.011Z,3.10
2023-02-26T20:40:48.746Z,3.10
2023-02-26T20:43:16.252Z,3.10
2023-02-26T20:45:44.957Z,3.10
2023-02-26T20:48:12.846Z,3.10
2023-02-26T20:50:40.331Z,3.10
2023-02-26T20:53:09.206Z,3.10
2023-02-26T20:55:36.556Z,3.10
2023-02-26T20:58:04.526Z,3.10
2023-02-26T21:00:32.655Z,3.10
2023-02-26T21:03:01.607Z,3.10
2023-02-26T21:05:29.370Z,3.00
2023-02-26T21:07:56.517Z,3.00
2023-02-26T21:10:23.623Z,3.00
2023-02-26T21:12:52.208Z,3.10
2023-02-26T21:15:19.746Z,3.00
2023-02-26T21:17:48.986Z,3.00
2023-02-26T21:20:18.215Z,3.10
2023-02-26T21:22:46.377Z,3.00
2023-02-26T21:25:14.960Z,3.00
2023-02-26T21:27:42.804Z,3.00
2023-02-26T21:30:12.861Z,3.00
2023-02-26T21:32:41.038Z,3.00
2023-02-26T21:35:12.114Z,2.90
2023-02-26T21:37:40.775Z,3.00
2023-02-26T21:40:10.107Z,3.00
2023-02-26T21:45:22.474Z,2.90
2023-02-26T21:47:51.060Z,2.80
2023-02-26T21:50:18.298Z,2.90
2023-02-26T21:52:46.863Z,2.90
2023-02-26T21:55:14.369Z,2.90
2023-02-26T21:57:41.469Z,2.80
2023-02-26T22:00:10.490Z,2.90
2023-02-26T22:02:38.070Z,2.80
2023-02-26T22:05:06.639Z,2.90
2023-02-26T22:07:33.748Z,2.80
2023-02-26T22:10:09.995Z,2.80
2023-02-26T22:12:37.239Z,2.80
2023-02-26T22:15:05.359Z,2.80
2023-02-26T22:17:32.565Z,2.70
2023-02-26T22:20:00.188Z,2.70
2023-02-26T22:22:27.498Z,2.70
2023-02-26T22:24:54.534Z,2.80
2023-02-26T22:27:26.270Z,2.80
2023-02-26T22:29:53.439Z,2.80
2023-02-26T22:32:21.123Z,2.80
2023-02-26T22:34:49.387Z,2.80
2023-02-26T22:37:18.142Z,2.70
2023-02-26T22:39:47.325Z,2.70
2023-02-26T22:42:14.587Z,2.70
2023-02-26T22:44:43.642Z,2.60
2023-02-26T22:47:11.445Z,2.60
2023-02-26T22:49:39.003Z,2.70
2023-02-26T22:52:06.469Z,2.70
2023-02-26T22:54:39.356Z,2.70
2023-02-26T22:57:08.164Z,2.70
2023-02-26T22:59:35.325Z,2.70
2023-02-26T23:02:04.302Z,2.60
2023-02-26T23:04:31.722Z,2.60
2023-02-26T23:06:59.322Z,2.60
2023-02-26T23:09:26.832Z,2.50
2023-02-26T23:11:54.724Z,2.60
2023-02-26T23:14:22.671Z,2.60
2023-02-26T23:16:49.794Z,2.50
2023-02-26T23:19:18.765Z,2.50
2023-02-26T23:21:46.405Z,2.50
2023-02-26T23:24:14.095Z,2.50
2023-02-26T23:26:41.159Z,2.50
2023-02-26T23:29:08.537Z,2.50
2023-02-26T23:31:36.152Z,2.50
2023-02-26T23:34:05.918Z,2.40
2023-02-26T23:36:34.581Z,2.40
2023-02-26T23:39:02.425Z,2.40
2023-02-26T23:41:32.865Z,2.40
2023-02-26T23:44:00.636Z,2.40
2023-02-26T23:46:27.758Z,2.40
2023-02-26T23:48:56.302Z,2.40
2023-02-26T23:51:23.359Z,2.40
2023-02-26T23:53:52.287Z,2.30
2023-02-26T23:56:19.298Z,2.30
2023-02-26T23:58:46.589Z,2.30
